Terminal Aerodrome Forecast
Issued by NWS

Home | Current Version | Previous Version | Text Only | Print | Product List | Glossary On
Versions: 1 2 3 4 5 6 7 8 9 10 11 12 13 14 15 16 17 18 19 20 21 22 23 24 25 26 27 28 29 30 31 32 33 34 35
000
FTUS43 KDLH 150007 RRA
TAFBRD
TAF
KBRD 150007Z 1500/1524 31009KT P6SM VCSH OVC022
     FM150100 31008KT 6SM -SHSN OVC018
      TEMPO 1501/1503 3SM -SN BR OVC012
     FM150400 30008KT P6SM BKN025
     FM150800 30007KT P6SM OVC012
     FM151600 VRB03KT P6SM BKN015
     FM152000 22005KT 6SM -SN BR OVC012=

USA.gov is the U.S. government's official web portal to all federal, state and local government web resources and services.